sensor_id;sensor_type;location;lat;lon;timestamp;pressure;altitude;pressure_sealevel;temperature;humidity
45541;BME280;31265;49.680;8.608;2023-06-14T00:01:20;100051.88;;;18.66;63.57
45541;BME280;31265;49.680;8.608;2023-06-14T00:03:51;100057.16;;;18.74;63.57
45541;BME280;31265;49.680;8.608;2023-06-14T00:06:19;100061.25;;;18.85;62.69
45541;BME280;31265;49.680;8.608;2023-06-14T00:08:51;100054.06;;;18.82;62.57
45541;BME280;31265;49.680;8.608;2023-06-14T00:11:24;100060.72;;;18.88;62.21
45541;BME280;31265;49.680;8.608;2023-06-14T00:13:53;100056.94;;;18.98;61.86
45541;BME280;31265;49.680;8.608;2023-06-14T00:16:27;100054.97;;;18.86;62.46
45541;BME280;31265;49.680;8.608;2023-06-14T00:18:55;100052.03;;;18.98;62.25
45541;BME280;31265;49.680;8.608;2023-06-14T00:21:24;100055.50;;;18.97;62.12
45541;BME280;31265;49.680;8.608;2023-06-14T00:23:57;100059.44;;;18.91;62.24
45541;BME280;31265;49.680;8.608;2023-06-14T00:26:26;100061.00;;;18.95;62.25
45541;BME280;31265;49.680;8.608;2023-06-14T00:28:55;100041.50;;;18.99;62.03
45541;BME280;31265;49.680;8.608;2023-06-14T00:31:27;100047.91;;;18.85;63.05
45541;BME280;31265;49.680;8.608;2023-06-14T00:33:55;100045.81;;;18.86;62.67
45541;BME280;31265;49.680;8.608;2023-06-14T00:36:24;100054.69;;;18.80;62.41
45541;BME280;31265;49.680;8.608;2023-06-14T00:38:52;100053.25;;;18.65;62.95
45541;BME280;31265;49.680;8.608;2023-06-14T00:41:21;100054.06;;;18.68;63.11
45541;BME280;31265;49.680;8.608;2023-06-14T00:43:50;100054.78;;;18.68;63.14
45541;BME280;31265;49.680;8.608;2023-06-14T00:46:21;100058.03;;;18.63;63.18
45541;BME280;31265;49.680;8.608;2023-06-14T00:48:52;100059.06;;;18.69;63.38
45541;BME280;31265;49.680;8.608;2023-06-14T00:51:20;100052.72;;;18.55;63.43
45541;BME280;31265;49.680;8.608;2023-06-14T00:53:48;100050.03;;;18.57;63.73
45541;BME280;31265;49.680;8.608;2023-06-14T00:56:17;100053.16;;;18.36;64.12
45541;BME280;31265;49.680;8.608;2023-06-14T00:58:50;100063.34;;;18.29;64.58
45541;BME280;31265;49.680;8.608;2023-06-14T01:01:19;100061.47;;;18.34;64.78
45541;BME280;31265;49.680;8.608;2023-06-14T01:03:47;100063.03;;;18.37;64.67
45541;BME280;31265;49.680;8.608;2023-06-14T01:06:23;100060.75;;;18.33;64.13
45541;BME280;31265;49.680;8.608;2023-06-14T01:09:03;100060.88;;;18.35;64.58
45541;BME280;31265;49.680;8.608;2023-06-14T01:11:41;100072.22;;;18.37;64.01
45541;BME280;31265;49.680;8.608;2023-06-14T01:14:16;100060.75;;;18.33;64.37
45541;BME280;31265;49.680;8.608;2023-06-14T01:16:46;100067.41;;;18.26;64.18
45541;BME280;31265;49.680;8.608;2023-06-14T01:19:15;100065.97;;;18.25;64.80
45541;BME280;31265;49.680;8.608;2023-06-14T01:21:45;100069.28;;;18.08;64.82
45541;BME280;31265;49.680;8.608;2023-06-14T01:24:19;100076.22;;;17.93;65.90
45541;BME280;31265;49.680;8.608;2023-06-14T01:26:54;100074.88;;;17.94;66.30
45541;BME280;31265;49.680;8.608;2023-06-14T01:29:27;100079.03;;;18.07;64.77
45541;BME280;31265;49.680;8.608;2023-06-14T01:32:00;100074.66;;;17.90;65.32
45541;BME280;31265;49.680;8.608;2023-06-14T01:34:30;100073.44;;;18.07;65.37
45541;BME280;31265;49.680;8.608;2023-06-14T01:37:00;100073.22;;;18.02;65.45
45541;BME280;31265;49.680;8.608;2023-06-14T01:39:33;100070.00;;;18.08;65.53
45541;BME280;31265;49.680;8.608;2023-06-14T01:42:06;100068.97;;;18.01;65.81
45541;BME280;31265;49.680;8.608;2023-06-14T01:44:37;100066.38;;;18.19;64.53
45541;BME280;31265;49.680;8.608;2023-06-14T01:47:09;100069.38;;;18.10;65.18
45541;BME280;31265;49.680;8.608;2023-06-14T01:49:38;100071.88;;;18.17;65.91
45541;BME280;31265;49.680;8.608;2023-06-14T01:52:08;100070.94;;;18.13;65.34
45541;BME280;31265;49.680;8.608;2023-06-14T01:54:38;100062.94;;;18.07;65.86
45541;BME280;31265;49.680;8.608;2023-06-14T01:57:09;100071.75;;;18.01;66.79
45541;BME280;31265;49.680;8.608;2023-06-14T01:59:38;100072.47;;;18.02;66.01
45541;BME280;31265;49.680;8.608;2023-06-14T02:02:09;100076.72;;;17.89;66.61
45541;BME280;31265;49.680;8.608;2023-06-14T02:04:37;100073.97;;;17.77;66.91
45541;BME280;31265;49.680;8.608;2023-06-14T02:07:05;100080.88;;;17.62;67.82
45541;BME280;31265;49.680;8.608;2023-06-14T02:09:35;100091.44;;;17.76;67.18
45541;BME280;31265;49.680;8.608;2023-06-14T02:12:06;100074.34;;;17.83;66.65
45541;BME280;31265;49.680;8.608;2023-06-14T02:14:34;100075.81;;;17.73;67.59
45541;BME280;31265;49.680;8.608;2023-06-14T02:17:02;100085.38;;;17.68;67.28
45541;BME280;31265;49.680;8.608;2023-06-14T02:19:31;100083.88;;;17.53;67.99
45541;BME280;31265;49.680;8.608;2023-06-14T02:22:03;100075.63;;;17.43;69.66
45541;BME280;31265;49.680;8.608;2023-06-14T02:24:34;100084.16;;;17.19;73.01
45541;BME280;31265;49.680;8.608;2023-06-14T02:27:02;100084.84;;;17.06;73.49
45541;BME280;31265;49.680;8.608;2023-06-14T02:29:34;100083.72;;;17.11;74.03
45541;BME280;31265;49.680;8.608;2023-06-14T02:32:04;100079.94;;;17.07;74.90
45541;BME280;31265;49.680;8.608;2023-06-14T02:34:36;100080.22;;;16.99;76.21
45541;BME280;31265;49.680;8.608;2023-06-14T02:37:17;100083.75;;;17.00;76.89
45541;BME280;31265;49.680;8.608;2023-06-14T02:39:46;100082.47;;;17.14;75.84
45541;BME280;31265;49.680;8.608;2023-06-14T02:42:16;100082.91;;;16.97;76.45
45541;BME280;31265;49.680;8.608;2023-06-14T02:44:46;100087.78;;;16.96;76.52
45541;BME280;31265;49.680;8.608;2023-06-14T02:47:18;100079.63;;;16.89;76.78
45541;BME280;31265;49.680;8.608;2023-06-14T02:49:47;100083.13;;;17.01;76.66
45541;BME280;31265;49.680;8.608;2023-06-14T02:52:15;100084.63;;;16.90;77.25
45541;BME280;31265;49.680;8.608;2023-06-14T02:54:44;100092.81;;;16.74;78.16
45541;BME280;31265;49.680;8.608;2023-06-14T02:57:17;100091.56;;;16.77;78.62
45541;BME280;31265;49.680;8.608;2023-06-14T02:59:47;100088.78;;;16.77;79.11
45541;BME280;31265;49.680;8.608;2023-06-14T03:02:16;100091.59;;;16.54;81.01
45541;BME280;31265;49.680;8.608;2023-06-14T03:04:45;100089.19;;;16.48;82.94
45541;BME280;31265;49.680;8.608;2023-06-14T03:07:16;100097.22;;;16.30;84.81
45541;BME280;31265;49.680;8.608;2023-06-14T03:09:50;100094.53;;;16.09;87.10
45541;BME280;31265;49.680;8.608;2023-06-14T03:12:18;100098.06;;;15.98;88.17
45541;BME280;31265;49.680;8.608;2023-06-14T03:14:53;100101.22;;;15.80;90.85
45541;BME280;31265;49.680;8.608;2023-06-14T03:17:26;100101.75;;;15.67;91.41
45541;BME280;31265;49.680;8.608;2023-06-14T03:20:08;100098.19;;;15.55;92.82
45541;BME280;31265;49.680;8.608;2023-06-14T03:22:37;100098.81;;;15.53;92.71
45541;BME280;31265;49.680;8.608;2023-06-14T03:25:07;100104.22;;;15.39;94.82
45541;BME280;31265;49.680;8.608;2023-06-14T03:27:38;100107.56;;;15.26;95.63
45541;BME280;31265;49.680;8.608;2023-06-14T03:30:11;100107.44;;;15.24;97.65
45541;BME280;31265;49.680;8.608;2023-06-14T03:32:42;100114.41;;;15.13;97.60
45541;BME280;31265;49.680;8.608;2023-06-14T03:35:14;100121.63;;;15.16;96.77
45541;BME280;31265;49.680;8.608;2023-06-14T03:37:47;100125.53;;;15.23;95.62
45541;BME280;31265;49.680;8.608;2023-06-14T03:40:18;100124.66;;;15.20;96.12
45541;BME280;31265;49.680;8.608;2023-06-14T03:42:50;100130.59;;;15.15;96.62
45541;BME280;31265;49.680;8.608;2023-06-14T03:45:23;100132.59;;;15.02;97.38
45541;BME280;31265;49.680;8.608;2023-06-14T03:47:52;100140.63;;;15.08;98.79
45541;BME280;31265;49.680;8.608;2023-06-14T03:50:22;100140.47;;;15.16;97.22
45541;BME280;31265;49.680;8.608;2023-06-14T03:52:51;100145.06;;;15.11;97.25
45541;BME280;31265;49.680;8.608;2023-06-14T03:55:20;100144.25;;;14.99;98.58
45541;BME280;31265;49.680;8.608;2023-06-14T03:58:12;100144.25;;;14.99;98.19
45541;BME280;31265;49.680;8.608;2023-06-14T04:00:42;100150.44;;;14.97;99.00
45541;BME280;31265;49.680;8.608;2023-06-14T04:03:10;100148.22;;;15.17;97.35
45541;BME280;31265;49.680;8.608;2023-06-14T04:05:40;100156.25;;;15.44;95.24
45541;BME280;31265;49.680;8.608;2023-06-14T04:08:09;100151.78;;;15.73;92.38
45541;BME280;31265;49.680;8.608;2023-06-14T04:10:41;100154.63;;;15.63;92.58
45541;BME280;31265;49.680;8.608;2023-06-14T04:13:09;100151.16;;;15.74;92.68
45541;BME280;31265;49.680;8.608;2023-06-14T04:15:42;100151.66;;;15.71;92.70
45541;BME280;31265;49.680;8.608;2023-06-14T04:18:13;100154.22;;;15.78;91.91
45541;BME280;31265;49.680;8.608;2023-06-14T04:20:42;100164.78;;;15.80;93.40
45541;BME280;31265;49.680;8.608;2023-06-14T04:23:11;100162.75;;;15.80;93.66
45541;BME280;31265;49.680;8.608;2023-06-14T04:25:41;100159.97;;;15.92;93.53
45541;BME280;31265;49.680;8.608;2023-06-14T04:28:12;100169.72;;;16.03;93.19
45541;BME280;31265;49.680;8.608;2023-06-14T04:30:42;100176.94;;;16.18;91.07
45541;BME280;31265;49.680;8.608;2023-06-14T04:33:14;100178.03;;;16.24;93.07
45541;BME280;31265;49.680;8.608;2023-06-14T04:35:45;100177.47;;;16.49;89.90
45541;BME280;31265;49.680;8.608;2023-06-14T04:38:15;100180.50;;;16.65;89.78
45541;BME280;31265;49.680;8.608;2023-06-14T04:40:46;100189.41;;;16.85;86.33
45541;BME280;31265;49.680;8.608;2023-06-14T04:43:17;100184.78;;;16.90;85.76
45541;BME280;31265;49.680;8.608;2023-06-14T04:45:54;100191.47;;;16.85;86.73
45541;BME280;31265;49.680;8.608;2023-06-14T04:48:25;100190.50;;;17.04;86.14
45541;BME280;31265;49.680;8.608;2023-06-14T04:50:54;100184.41;;;16.95;86.55
45541;BME280;31265;49.680;8.608;2023-06-14T04:53:23;100187.78;;;17.06;85.25
45541;BME280;31265;49.680;8.608;2023-06-14T04:55:55;100195.09;;;17.11;85.30
45541;BME280;31265;49.680;8.608;2023-06-14T04:58:25;100199.97;;;17.10;86.52
45541;BME280;31265;49.680;8.608;2023-06-14T05:00:56;100203.50;;;17.11;86.30
45541;BME280;31265;49.680;8.608;2023-06-14T05:03:26;100213.63;;;17.04;86.63
45541;BME280;31265;49.680;8.608;2023-06-14T05:05:54;100204.34;;;17.13;86.84
45541;BME280;31265;49.680;8.608;2023-06-14T05:08:23;100205.91;;;17.28;86.39
45541;BME280;31265;49.680;8.608;2023-06-14T05:10:52;100194.81;;;17.30;85.56
45541;BME280;31265;49.680;8.608;2023-06-14T05:13:21;100201.50;;;17.37;84.22
45541;BME280;31265;49.680;8.608;2023-06-14T05:15:50;100201.38;;;17.35;85.20
45541;BME280;31265;49.680;8.608;2023-06-14T05:18:20;100204.28;;;17.37;84.75
45541;BME280;31265;49.680;8.608;2023-06-14T05:20:48;100201.03;;;17.66;84.22
45541;BME280;31265;49.680;8.608;2023-06-14T05:23:17;100199.72;;;17.55;84.39
45541;BME280;31265;49.680;8.608;2023-06-14T05:25:45;100200.09;;;17.50;85.10
45541;BME280;31265;49.680;8.608;2023-06-14T05:28:14;100200.94;;;17.52;84.89
45541;BME280;31265;49.680;8.608;2023-06-14T05:30:43;100205.16;;;17.65;84.00
45541;BME280;31265;49.680;8.608;2023-06-14T05:33:11;100206.56;;;17.52;86.06
45541;BME280;31265;49.680;8.608;2023-06-14T05:35:42;100204.03;;;17.70;85.65
45541;BME280;31265;49.680;8.608;2023-06-14T05:38:10;100217.34;;;17.70;86.34
45541;BME280;31265;49.680;8.608;2023-06-14T05:40:39;100213.59;;;17.65;86.06
45541;BME280;31265;49.680;8.608;2023-06-14T05:43:07;100225.59;;;17.79;84.93
45541;BME280;31265;49.680;8.608;2023-06-14T05:45:39;100224.13;;;17.90;85.76
45541;BME280;31265;49.680;8.608;2023-06-14T05:48:09;100205.72;;;17.87;84.66
45541;BME280;31265;49.680;8.608;2023-06-14T05:50:57;100219.19;;;18.02;84.43
45541;BME280;31265;49.680;8.608;2023-06-14T05:53:25;100219.94;;;18.03;84.13
45541;BME280;31265;49.680;8.608;2023-06-14T05:55:53;100215.59;;;18.14;85.21
45541;BME280;31265;49.680;8.608;2023-06-14T05:58:22;100217.59;;;18.25;83.43
45541;BME280;31265;49.680;8.608;2023-06-14T06:00:51;100221.84;;;18.26;84.14
45541;BME280;31265;49.680;8.608;2023-06-14T06:03:20;100227.28;;;18.36;85.03
45541;BME280;31265;49.680;8.608;2023-06-14T06:05:50;100231.91;;;18.57;83.14
45541;BME280;31265;49.680;8.608;2023-06-14T06:08:20;100232.53;;;18.55;82.90
45541;BME280;31265;49.680;8.608;2023-06-14T06:10:49;100234.81;;;18.59;82.73
45541;BME280;31265;49.680;8.608;2023-06-14T06:13:17;100244.19;;;18.63;82.87
45541;BME280;31265;49.680;8.608;2023-06-14T06:15:46;100244.25;;;18.77;82.61
45541;BME280;31265;49.680;8.608;2023-06-14T06:18:14;100245.41;;;19.00;79.71
45541;BME280;31265;49.680;8.608;2023-06-14T06:20:43;100253.41;;;19.05;80.96
45541;BME280;31265;49.680;8.608;2023-06-14T06:23:13;100258.63;;;18.97;80.50
45541;BME280;31265;49.680;8.608;2023-06-14T06:25:43;100254.44;;;18.98;82.10
45541;BME280;31265;49.680;8.608;2023-06-14T06:28:11;100251.22;;;19.31;80.40
45541;BME280;31265;49.680;8.608;2023-06-14T06:30:39;100256.22;;;19.19;80.71
45541;BME280;31265;49.680;8.608;2023-06-14T06:33:07;100266.78;;;19.62;78.16
45541;BME280;31265;49.680;8.608;2023-06-14T06:35:36;100268.84;;;19.75;77.97
45541;BME280;31265;49.680;8.608;2023-06-14T06:38:04;100266.13;;;19.77;80.67
45541;BME280;31265;49.680;8.608;2023-06-14T06:40:32;100264.22;;;19.96;78.33
45541;BME280;31265;49.680;8.608;2023-06-14T06:43:03;100281.97;;;19.85;81.72
45541;BME280;31265;49.680;8.608;2023-06-14T06:45:39;100280.75;;;20.49;76.88
45541;BME280;31265;49.680;8.608;2023-06-14T06:48:07;100279.44;;;20.66;78.66
45541;BME280;31265;49.680;8.608;2023-06-14T06:50:37;100275.69;;;20.93;74.23
45541;BME280;31265;49.680;8.608;2023-06-14T06:53:05;100269.75;;;21.19;73.24
45541;BME280;31265;49.680;8.608;2023-06-14T06:55:34;100274.53;;;20.82;78.92
45541;BME280;31265;49.680;8.608;2023-06-14T06:58:03;100287.06;;;20.95;72.61
45541;BME280;31265;49.680;8.608;2023-06-14T07:00:32;100282.59;;;21.22;71.59
45541;BME280;31265;49.680;8.608;2023-06-14T07:03:00;100290.44;;;21.08;73.48
45541;BME280;31265;49.680;8.608;2023-06-14T07:05:31;100287.41;;;21.87;67.85
45541;BME280;31265;49.680;8.608;2023-06-14T07:08:00;100292.25;;;22.20;71.44
45541;BME280;31265;49.680;8.608;2023-06-14T07:10:28;100289.97;;;22.35;66.89
45541;BME280;31265;49.680;8.608;2023-06-14T07:12:56;100290.16;;;22.21;65.67
45541;BME280;31265;49.680;8.608;2023-06-14T07:15:26;100306.53;;;22.24;66.38
45541;BME280;31265;49.680;8.608;2023-06-14T07:17:54;100291.38;;;22.33;69.37
45541;BME280;31265;49.680;8.608;2023-06-14T07:20:26;100300.00;;;22.02;70.12
45541;BME280;31265;49.680;8.608;2023-06-14T07:22:55;100312.84;;;22.41;65.93
45541;BME280;31265;49.680;8.608;2023-06-14T07:25:23;100291.19;;;22.67;65.72
45541;BME280;31265;49.680;8.608;2023-06-14T07:27:52;100300.03;;;23.15;65.22
45541;BME280;31265;49.680;8.608;2023-06-14T07:30:20;100301.88;;;23.49;62.19
45541;BME280;31265;49.680;8.608;2023-06-14T07:32:54;100296.81;;;23.45;62.84
45541;BME280;31265;49.680;8.608;2023-06-14T07:35:22;100306.66;;;23.44;64.27
45541;BME280;31265;49.680;8.608;2023-06-14T07:37:51;100313.94;;;23.49;63.39
45541;BME280;31265;49.680;8.608;2023-06-14T07:40:19;100317.06;;;23.37;64.93
45541;BME280;31265;49.680;8.608;2023-06-14T07:42:48;100314.09;;;23.97;61.30
45541;BME280;31265;49.680;8.608;2023-06-14T07:45:17;100316.88;;;23.95;62.77
45541;BME280;31265;49.680;8.608;2023-06-14T07:47:46;100333.84;;;24.39;59.21
45541;BME280;31265;49.680;8.608;2023-06-14T07:50:16;100335.69;;;24.53;57.99
45541;BME280;31265;49.680;8.608;2023-06-14T07:52:45;100324.03;;;24.20;57.18
45541;BME280;31265;49.680;8.608;2023-06-14T07:55:14;100324.53;;;23.71;58.42
45541;BME280;31265;49.680;8.608;2023-06-14T07:57:43;100329.13;;;23.80;59.43
45541;BME280;31265;49.680;8.608;2023-06-14T08:00:13;100326.22;;;23.78;61.45
45541;BME280;31265;49.680;8.608;2023-06-14T08:02:43;100332.28;;;24.12;59.96
45541;BME280;31265;49.680;8.608;2023-06-14T08:05:12;100331.69;;;24.62;58.44
45541;BME280;31265;49.680;8.608;2023-06-14T08:07:43;100333.91;;;24.89;56.53
45541;BME280;31265;49.680;8.608;2023-06-14T08:10:11;100327.94;;;24.55;59.51
45541;BME280;31265;49.680;8.608;2023-06-14T08:12:40;100329.56;;;24.38;59.59
45541;BME280;31265;49.680;8.608;2023-06-14T08:15:09;100330.94;;;24.37;58.28
45541;BME280;31265;49.680;8.608;2023-06-14T08:17:42;100335.63;;;24.75;59.72
45541;BME280;31265;49.680;8.608;2023-06-14T08:20:12;100334.59;;;25.14;59.25
45541;BME280;31265;49.680;8.608;2023-06-14T08:22:40;100340.84;;;25.08;57.12
45541;BME280;31265;49.680;8.608;2023-06-14T08:25:13;100344.88;;;25.25;55.52
45541;BME280;31265;49.680;8.608;2023-06-14T08:27:42;100342.75;;;25.52;51.03
45541;BME280;31265;49.680;8.608;2023-06-14T08:30:12;100331.94;;;26.03;49.78
45541;BME280;31265;49.680;8.608;2023-06-14T08:32:41;100338.50;;;25.81;49.71
45541;BME280;31265;49.680;8.608;2023-06-14T08:35:09;100329.19;;;25.79;48.63
45541;BME280;31265;49.680;8.608;2023-06-14T08:37:39;100327.81;;;25.80;49.34
45541;BME280;31265;49.680;8.608;2023-06-14T08:40:21;100332.03;;;25.79;50.07
45541;BME280;31265;49.680;8.608;2023-06-14T08:42:52;100330.97;;;25.11;55.14
45541;BME280;31265;49.680;8.608;2023-06-14T08:45:22;100341.00;;;25.15;49.49
45541;BME280;31265;49.680;8.608;2023-06-14T08:47:55;100333.34;;;25.45;54.24
45541;BME280;31265;49.680;8.608;2023-06-14T08:50:27;100340.09;;;25.60;51.22
45541;BME280;31265;49.680;8.608;2023-06-14T08:53:01;100333.59;;;26.44;46.66
45541;BME280;31265;49.680;8.608;2023-06-14T08:55:33;100331.69;;;26.23;43.59
45541;BME280;31265;49.680;8.608;2023-06-14T08:58:04;100333.81;;;25.92;44.36
45541;BME280;31265;49.680;8.608;2023-06-14T09:00:33;100336.09;;;25.98;48.33
45541;BME280;31265;49.680;8.608;2023-06-14T09:03:01;100336.94;;;26.34;47.19
45541;BME280;31265;49.680;8.608;2023-06-14T09:05:30;100329.28;;;26.41;48.52
45541;BME280;31265;49.680;8.608;2023-06-14T09:08:01;100334.31;;;26.77;46.00
45541;BME280;31265;49.680;8.608;2023-06-14T09:10:34;100339.34;;;26.78;48.39
45541;BME280;31265;49.680;8.608;2023-06-14T09:13:05;100343.66;;;25.87;48.44
45541;BME280;31265;49.680;8.608;2023-06-14T09:15:34;100344.72;;;26.64;48.43
45541;BME280;31265;49.680;8.608;2023-06-14T09:18:03;100340.56;;;26.69;52.17
45541;BME280;31265;49.680;8.608;2023-06-14T09:20:33;100328.38;;;26.65;51.62
45541;BME280;31265;49.680;8.608;2023-06-14T09:23:02;100345.09;;;26.50;46.10
45541;BME280;31265;49.680;8.608;2023-06-14T09:25:34;100342.94;;;26.81;42.06
45541;BME280;31265;49.680;8.608;2023-06-14T09:28:09;100357.47;;;26.95;43.18
45541;BME280;31265;49.680;8.608;2023-06-14T09:30:38;100358.72;;;27.22;44.69
45541;BME280;31265;49.680;8.608;2023-06-14T09:33:07;100349.78;;;26.37;46.87
45541;BME280;31265;49.680;8.608;2023-06-14T09:35:36;100342.50;;;26.60;42.89
45541;BME280;31265;49.680;8.608;2023-06-14T09:38:04;100354.25;;;26.77;42.58
45541;BME280;31265;49.680;8.608;2023-06-14T09:40:36;100349.06;;;27.38;45.35
45541;BME280;31265;49.680;8.608;2023-06-14T09:43:06;100362.34;;;27.25;41.99
45541;BME280;31265;49.680;8.608;2023-06-14T09:45:35;100356.88;;;27.37;47.35
45541;BME280;31265;49.680;8.608;2023-06-14T09:48:06;100355.69;;;27.51;45.50
45541;BME280;31265;49.680;8.608;2023-06-14T09:50:35;100348.84;;;27.66;40.13
45541;BME280;31265;49.680;8.608;2023-06-14T09:53:06;100353.13;;;28.07;39.13
45541;BME280;31265;49.680;8.608;2023-06-14T09:55:37;100350.22;;;26.90;41.04
45541;BME280;31265;49.680;8.608;2023-06-14T09:58:08;100369.56;;;26.31;42.69
45541;BME280;31265;49.680;8.608;2023-06-14T10:00:38;100359.25;;;27.15;39.50
45541;BME280;31265;49.680;8.608;2023-06-14T10:03:12;100356.22;;;27.05;41.18
45541;BME280;31265;49.680;8.608;2023-06-14T10:05:44;100351.38;;;27.48;41.55
45541;BME280;31265;49.680;8.608;2023-06-14T10:08:18;100352.09;;;27.12;43.60
45541;BME280;31265;49.680;8.608;2023-06-14T10:10:48;100355.09;;;27.97;39.94
45541;BME280;31265;49.680;8.608;2023-06-14T10:13:17;100354.03;;;28.20;40.72
45541;BME280;31265;49.680;8.608;2023-06-14T10:15:52;100344.84;;;27.41;41.36
45541;BME280;31265;49.680;8.608;2023-06-14T10:18:31;100354.19;;;27.45;41.84
45541;BME280;31265;49.680;8.608;2023-06-14T10:21:06;100349.97;;;27.49;43.86
45541;BME280;31265;49.680;8.608;2023-06-14T10:23:39;100351.44;;;28.91;38.49
45541;BME280;31265;49.680;8.608;2023-06-14T10:26:18;100350.97;;;28.55;40.83
45541;BME280;31265;49.680;8.608;2023-06-14T10:28:56;100364.22;;;28.36;38.67
45541;BME280;31265;49.680;8.608;2023-06-14T10:31:42;100351.66;;;28.06;38.83
45541;BME280;31265;49.680;8.608;2023-06-14T10:34:12;100346.38;;;28.35;37.27
45541;BME280;31265;49.680;8.608;2023-06-14T10:36:42;100353.88;;;28.10;36.99
45541;BME280;31265;49.680;8.608;2023-06-14T10:39:15;100358.59;;;26.50;39.35
45541;BME280;31265;49.680;8.608;2023-06-14T10:41:52;100341.78;;;25.71;39.99
45541;BME280;31265;49.680;8.608;2023-06-14T10:44:51;100355.59;;;26.74;40.84
45541;BME280;31265;49.680;8.608;2023-06-14T10:47:26;100356.59;;;24.89;45.27
45541;BME280;31265;49.680;8.608;2023-06-14T10:49:57;100353.81;;;26.26;42.50
45541;BME280;31265;49.680;8.608;2023-06-14T10:52:33;100353.31;;;27.02;42.71
45541;BME280;31265;49.680;8.608;2023-06-14T10:55:07;100345.00;;;27.90;40.11
45541;BME280;31265;49.680;8.608;2023-06-14T10:57:53;100345.31;;;26.28;45.17
45541;BME280;31265;49.680;8.608;2023-06-14T11:00:25;100351.00;;;26.28;42.45
45541;BME280;31265;49.680;8.608;2023-06-14T11:06:13;100356.00;;;27.69;40.68
45541;BME280;31265;49.680;8.608;2023-06-14T11:09:13;100344.22;;;27.47;40.36
45541;BME280;31265;49.680;8.608;2023-06-14T11:11:48;100353.81;;;28.55;38.19
45541;BME280;31265;49.680;8.608;2023-06-14T11:14:20;100349.16;;;28.80;37.75
45541;BME280;31265;49.680;8.608;2023-06-14T11:16:49;100342.81;;;29.48;35.32
45541;BME280;31265;49.680;8.608;2023-06-14T11:19:18;100342.53;;;28.65;38.80
45541;BME280;31265;49.680;8.608;2023-06-14T11:21:47;100341.81;;;28.64;38.96
45541;BME280;31265;49.680;8.608;2023-06-14T11:24:19;100340.09;;;29.00;35.70
45541;BME280;31265;49.680;8.608;2023-06-14T11:26:48;100337.97;;;28.98;36.32
45541;BME280;31265;49.680;8.608;2023-06-14T11:29:16;100344.91;;;28.83;36.18
45541;BME280;31265;49.680;8.608;2023-06-14T11:31:46;100341.63;;;26.86;40.51
45541;BME280;31265;49.680;8.608;2023-06-14T11:34:14;100343.91;;;27.69;38.55
45541;BME280;31265;49.680;8.608;2023-06-14T11:36:43;100353.34;;;28.72;37.06
45541;BME280;31265;49.680;8.608;2023-06-14T11:39:14;100348.38;;;27.80;39.94
45541;BME280;31265;49.680;8.608;2023-06-14T11:41:44;100349.06;;;27.78;39.29
45541;BME280;31265;49.680;8.608;2023-06-14T11:44:13;100349.53;;;28.07;41.36
45541;BME280;31265;49.680;8.608;2023-06-14T11:46:41;100331.19;;;29.30;35.30
45541;BME280;31265;49.680;8.608;2023-06-14T11:49:11;100336.00;;;29.86;37.95
45541;BME280;31265;49.680;8.608;2023-06-14T11:51:39;100346.88;;;30.06;36.84
45541;BME280;31265;49.680;8.608;2023-06-14T11:54:10;100340.03;;;30.52;34.43
45541;BME280;31265;49.680;8.608;2023-06-14T11:56:39;100349.72;;;31.49;32.92
45541;BME280;31265;49.680;8.608;2023-06-14T11:59:08;100332.28;;;30.77;30.87
45541;BME280;31265;49.680;8.608;2023-06-14T12:01:36;100347.66;;;30.15;32.57
45541;BME280;31265;49.680;8.608;2023-06-14T12:04:06;100343.94;;;29.19;33.33
45541;BME280;31265;49.680;8.608;2023-06-14T12:06:37;100345.63;;;27.09;37.10
45541;BME280;31265;49.680;8.608;2023-06-14T12:09:08;100337.44;;;26.25;39.29
45541;BME280;31265;49.680;8.608;2023-06-14T12:11:41;100343.31;;;26.99;38.42
45541;BME280;31265;49.680;8.608;2023-06-14T12:14:09;100339.72;;;27.33;38.35
45541;BME280;31265;49.680;8.608;2023-06-14T12:16:39;100337.31;;;26.85;38.35
45541;BME280;31265;49.680;8.608;2023-06-14T12:19:12;100344.03;;;26.03;40.20
45541;BME280;31265;49.680;8.608;2023-06-14T12:21:42;100338.63;;;25.57;42.00
45541;BME280;31265;49.680;8.608;2023-06-14T12:24:14;100337.28;;;25.08;42.71
45541;BME280;31265;49.680;8.608;2023-06-14T12:26:42;100331.22;;;25.46;45.19
45541;BME280;31265;49.680;8.608;2023-06-14T12:29:13;100339.47;;;26.52;40.12
45541;BME280;31265;49.680;8.608;2023-06-14T12:31:41;100332.03;;;28.27;37.03
45541;BME280;31265;49.680;8.608;2023-06-14T12:34:10;100333.97;;;29.24;36.80
45541;BME280;31265;49.680;8.608;2023-06-14T12:36:38;100340.53;;;30.18;33.79
45541;BME280;31265;49.680;8.608;2023-06-14T12:39:13;100336.78;;;29.95;36.21
45541;BME280;31265;49.680;8.608;2023-06-14T12:41:41;100329.63;;;28.11;35.97
45541;BME280;31265;49.680;8.608;2023-06-14T12:44:10;100329.66;;;29.19;34.47
45541;BME280;31265;49.680;8.608;2023-06-14T12:46:39;100330.25;;;29.84;34.03
45541;BME280;31265;49.680;8.608;2023-06-14T12:49:09;100333.47;;;30.29;31.57
45541;BME280;31265;49.680;8.608;2023-06-14T12:51:39;100334.06;;;30.13;35.08
45541;BME280;31265;49.680;8.608;2023-06-14T12:54:08;100334.25;;;29.50;34.77
45541;BME280;31265;49.680;8.608;2023-06-14T12:56:38;100327.06;;;29.47;36.52
45541;BME280;31265;49.680;8.608;2023-06-14T12:59:08;100328.00;;;29.01;35.82
45541;BME280;31265;49.680;8.608;2023-06-14T13:01:37;100334.28;;;30.44;31.92
45541;BME280;31265;49.680;8.608;2023-06-14T13:04:06;100328.19;;;29.91;32.93
45541;BME280;31265;49.680;8.608;2023-06-14T13:06:34;100334.28;;;29.56;34.33
45541;BME280;31265;49.680;8.608;2023-06-14T13:09:03;100330.69;;;28.34;34.10
45541;BME280;31265;49.680;8.608;2023-06-14T13:11:32;100335.03;;;27.50;34.83